Wetterstation Vordersexau
Wetterdaten: Woche 20.02.17 - 26.02.17 (KW8)
Datum Zeit Temp. A. Feuchte A. Luftdruck Regen Wind Richtung Taupunkt Windchill Windben
20.02.2017 00:00 4,6 C 83 % 1022,1 hPa 0,0 l/m 0,0 km/h O-NO 2,0 C 4,6 C 0,0 km/h
20.02.2017 01:00 4,5 C 83 % 1022,0 hPa 0,0 l/m 0,0 km/h O-NO 1,9 C 4,5 C 0,0 km/h
20.02.2017 02:00 4,7 C 84 % 1021,8 hPa 0,0 l/m 0,0 km/h O-NO 2,2 C 4,7 C 0,0 km/h
20.02.2017 03:00 4,7 C 84 % 1021,7 hPa 0,0 l/m 0,0 km/h O-NO 2,2 C 4,7 C 0,0 km/h
20.02.2017 04:00 4,6 C 84 % 1021,2 hPa 0,0 l/m 0,0 km/h O-NO 2,1 C 4,6 C 0,0 km/h
20.02.2017 05:00 4,7 C 84 % 1021,5 hPa 0,0 l/m 0,0 km/h O-SO 2,2 C 4,7 C 0,0 km/h
20.02.2017 06:00 4,8 C 83 % 1021,4 hPa 0,0 l/m 0,0 km/h O-SO 2,2 C 4,8 C 0,0 km/h
20.02.2017 07:00 4,9 C 83 % 1021,6 hPa 0,0 l/m 0,0 km/h W 2,3 C 4,9 C 0,0 km/h
20.02.2017 08:00 5,8 C 84 % 1021,8 hPa 0,0 l/m 0,0 km/h SW 3,3 C 5,8 C 0,0 km/h
20.02.2017 09:00 7,0 C 82 % 1022,1 hPa 0,0 l/m 5,8 km/h SW 4,1 C 7,0 C 3,2 km/h
20.02.2017 10:00 7,9 C 80 % 1022,2 hPa 0,0 l/m 0,0 km/h S-SW 4,7 C 7,9 C 0,0 km/h
20.02.2017 11:00 7,9 C 79 % 1022,5 hPa 0,0 l/m 0,6 km/h S-SW 4,5 C 7,9 C 0,4 km/h
20.02.2017 12:00 8,8 C 79 % 1022,5 hPa 0,0 l/m 3,9 km/h W-SW 5,4 C 8,8 C 2,2 km/h
20.02.2017 13:00 10,1 C 74 % 1021,2 hPa 0,0 l/m 14,9 km/h SW 5,7 C 5,3 C 8,3 km/h
20.02.2017 14:00 10,3 C 72 % 1020,5 hPa 0,0 l/m 24,0 km/h SW 5,5 C 2,5 C 13,3 km/h
20.02.2017 15:00 9,8 C 74 % 1020,1 hPa 0,0 l/m 18,1 km/h W-SW 5,4 C 3,7 C 10,1 km/h
20.02.2017 16:00 9,6 C 74 % 1020,0 hPa 0,0 l/m 24,6 km/h W-SW 5,2 C 1,4 C 13,7 km/h
20.02.2017 17:00 9,2 C 75 % 1019,7 hPa 0,0 l/m 24,0 km/h S-SW 5,0 C 1,0 C 13,3 km/h
20.02.2017 18:00 8,9 C 75 % 1019,7 hPa 0,0 l/m 7,1 km/h S-SW 4,7 C 8,4 C 4,0 km/h
20.02.2017 19:00 9,0 C 75 % 1019,8 hPa 0,0 l/m 0,6 km/h S 4,8 C 9,0 C 0,4 km/h
20.02.2017 20:00 8,4 C 78 % 1019,5 hPa 0,0 l/m 9,1 km/h S-SW 4,8 C 6,4 C 5,0 km/h
20.02.2017 21:00 7,1 C 85 % 1020,0 hPa 0,0 l/m 13,6 km/h S 4,8 C 2,3 C 7,6 km/h
20.02.2017 22:00 7,1 C 85 % 1019,6 hPa 0,5 l/m 20,7 km/h S 4,8 C -0,7 C 11,5 km/h
20.02.2017 23:00 8,4 C 83 % 1019,4 hPa 0,0 l/m 20,1 km/h S-SW 5,7 C 1,2 C 11,2 km/h
21.02.2017 00:00 8,5 C 82 % 1019,3 hPa 0,0 l/m 2,6 km/h S-SW 5,6 C 8,5 C 1,4 km/h
21.02.2017 01:00 8,4 C 83 % 1019,2 hPa 0,5 l/m 38,2 km/h SW 5,7 C -3,2 C 21,2 km/h
21.02.2017 02:00 8,6 C 83 % 1019,1 hPa 0,0 l/m 33,7 km/h S 5,9 C -2,1 C 18,7 km/h
21.02.2017 03:00 8,7 C 84 % 1018,3 hPa 0,0 l/m 15,6 km/h W-SW 6,2 C 3,3 C 8,6 km/h
21.02.2017 04:00 9,0 C 83 % 1017,7 hPa 0,0 l/m 21,4 km/h S-SW 6,3 C 1,5 C 11,9 km/h
21.02.2017 05:00 8,9 C 84 % 1017,2 hPa 0,0 l/m 20,7 km/h W-SW 6,3 C 1,6 C 11,5 km/h
21.02.2017 06:00 9,2 C 84 % 1016,7 hPa 0,0 l/m 10,4 km/h SW 6,6 C 6,5 C 5,8 km/h
21.02.2017 07:00 9,3 C 84 % 1017,1 hPa 0,0 l/m 22,7 km/h SW 6,7 C 1,5 C 12,6 km/h
21.02.2017 08:00 9,4 C 84 % 1017,1 hPa 0,0 l/m 21,4 km/h W-SW 6,8 C 2,1 C 11,9 km/h
21.02.2017 09:00 9,4 C 85 % 1017,3 hPa 0,0 l/m 9,7 km/h W 7,0 C 7,1 C 5,4 km/h
21.02.2017 10:00 10,0 C 84 % 1017,3 hPa 0,0 l/m 10,4 km/h S-SW 7,4 C 7,4 C 5,8 km/h
21.02.2017 11:00 10,6 C 83 % 1017,5 hPa 0,0 l/m 11,7 km/h W-SW 7,8 C 7,4 C 6,5 km/h
21.02.2017 12:00 11,3 C 80 % 1017,5 hPa 0,0 l/m 17,5 km/h S-SW 8,0 C 5,8 C 9,7 km/h
21.02.2017 13:00 11,5 C 81 % 1017,2 hPa 0,0 l/m 20,1 km/h S-SW 8,4 C 5,2 C 11,2 km/h
21.02.2017 14:00 11,8 C 80 % 1016,8 hPa 0,0 l/m 12,3 km/h S-SW 8,5 C 8,4 C 6,8 km/h
21.02.2017 15:00 11,6 C 80 % 1016,6 hPa 0,0 l/m 20,1 km/h W-SW 8,3 C 5,3 C 11,2 km/h
21.02.2017 16:00 11,8 C 80 % 1016,6 hPa 0,0 l/m 16,8 km/h SW 8,5 C 6,7 C 9,4 km/h
21.02.2017 17:00 11,1 C 84 % 1016,7 hPa 0,0 l/m 24,0 km/h W-SW 8,5 C 3,6 C 13,3 km/h
21.02.2017 18:00 10,8 C 85 % 1017,0 hPa 0,0 l/m 14,3 km/h W-SW 8,4 C 6,4 C 7,9 km/h
21.02.2017 19:00 10,8 C 85 % 1017,4 hPa 0,0 l/m 24,6 km/h W-SW 8,4 C 3,0 C 13,7 km/h
21.02.2017 20:00 10,8 C 85 % 1017,1 hPa 0,0 l/m 16,8 km/h SW 8,4 C 5,4 C 9,4 km/h
21.02.2017 21:00 10,7 C 85 % 1017,1 hPa 0,0 l/m 15,6 km/h S 8,3 C 5,7 C 8,6 km/h
21.02.2017 22:00 10,7 C 84 % 1017,3 hPa 0,0 l/m 16,2 km/h W-SW 8,1 C 5,5 C 9,0 km/h
21.02.2017 23:00 10,6 C 85 % 1017,0 hPa 0,0 l/m 7,8 km/h SW 8,2 C 9,6 C 4,3 km/h
22.02.2017 00:00 10,5 C 85 % 1016,9 hPa 0,0 l/m 21,4 km/h SW 8,1 C 3,5 C 11,9 km/h
22.02.2017 01:00 10,7 C 84 % 1016,6 hPa 0,0 l/m 18,1 km/h SW 8,1 C 4,8 C 10,1 km/h
22.02.2017 02:00 10,6 C 84 % 1016,2 hPa 0,0 l/m 20,1 km/h SW 8,0 C 4,0 C 11,2 km/h
22.02.2017 03:00 10,4 C 84 % 1015,7 hPa 0,0 l/m 36,3 km/h SW 7,8 C 0,1 C 20,2 km/h
22.02.2017 04:00 10,4 C 84 % 1015,3 hPa 0,0 l/m 22,0 km/h S 7,8 C 3,2 C 12,2 km/h
22.02.2017 05:00 10,5 C 82 % 1015,0 hPa 0,0 l/m 0,0 km/h S 7,6 C 10,5 C 0,0 km/h
22.02.2017 06:00 10,4 C 80 % 1014,6 hPa 0,0 l/m 33,0 km/h W-SW 7,1 C 0,6 C 18,4 km/h
22.02.2017 07:00 10,4 C 78 % 1014,4 hPa 0,0 l/m 17,5 km/h W-SW 6,7 C 4,7 C 9,7 km/h
22.02.2017 08:00 10,3 C 77 % 1014,9 hPa 0,0 l/m 25,3 km/h W-SW 6,4 C 2,2 C 14,0 km/h
22.02.2017 09:00 10,2 C 77 % 1015,2 hPa 0,0 l/m 21,4 km/h W 6,4 C 3,1 C 11,9 km/h
22.02.2017 10:00 10,4 C 78 % 1015,4 hPa 0,0 l/m 29,8 km/h W-SW 6,7 C 1,3 C 16,6 km/h
22.02.2017 11:00 10,9 C 77 % 1015,4 hPa 0,0 l/m 25,9 km/h S-SW 7,0 C 2,8 C 14,4 km/h
22.02.2017 12:00 11,1 C 75 % 1015,2 hPa 0,0 l/m 24,6 km/h SW 6,8 C 3,4 C 13,7 km/h
22.02.2017 13:00 10,3 C 75 % 1015,0 hPa 0,0 l/m 16,8 km/h SW 6,1 C 4,8 C 9,4 km/h
22.02.2017 14:00 10,2 C 75 % 1014,8 hPa 0,0 l/m 33,7 km/h W-SW 6,0 C 0,2 C 18,7 km/h
22.02.2017 15:00 10,4 C 74 % 1014,1 hPa 0,0 l/m 22,7 km/h W-SW 6,0 C 3,0 C 12,6 km/h
22.02.2017 16:00 10,1 C 74 % 1013,9 hPa 0,0 l/m 39,5 km/h W-SW 5,7 C -0,9 C 22,0 km/h
22.02.2017 17:00 9,9 C 74 % 1013,9 hPa 0,0 l/m 22,7 km/h W 5,5 C 2,3 C 12,6 km/h
22.02.2017 18:00 9,6 C 75 % 1013,5 hPa 0,0 l/m 15,6 km/h SW 5,4 C 4,4 C 8,6 km/h
22.02.2017 19:00 9,5 C 74 % 1014,1 hPa 0,0 l/m 21,4 km/h S-SW 5,1 C 2,2 C 11,9 km/h
22.02.2017 20:00 9,3 C 74 % 1014,0 hPa 0,0 l/m 20,1 km/h SW 4,9 C 2,3 C 11,2 km/h
22.02.2017 21:00 9,1 C 73 % 1014,1 hPa 0,0 l/m 28,5 km/h SW 4,5 C -0,3 C 15,8 km/h
22.02.2017 22:00 9,1 C 73 % 1013,9 hPa 0,0 l/m 20,1 km/h W-SW 4,5 C 2,1 C 11,2 km/h
22.02.2017 23:00 9,1 C 73 % 1013,3 hPa 0,0 l/m 12,3 km/h SW 4,5 C 5,3 C 6,8 km/h
23.02.2017 00:00 9,1 C 75 % 1013,0 hPa 0,0 l/m 14,3 km/h SW 4,9 C 4,4 C 7,9 km/h
23.02.2017 01:00 8,7 C 76 % 1012,6 hPa 0,0 l/m 17,5 km/h S 4,7 C 2,5 C 9,7 km/h
23.02.2017 02:00 8,7 C 77 % 1011,9 hPa 0,0 l/m 16,2 km/h SW 4,9 C 3,0 C 9,0 km/h
23.02.2017 03:00 8,3 C 78 % 1011,4 hPa 0,0 l/m 5,2 km/h W 4,7 C 8,3 C 2,9 km/h
23.02.2017 04:00 8,2 C 80 % 1010,9 hPa 0,0 l/m 7,8 km/h S-SW 5,0 C 7,1 C 4,3 km/h
23.02.2017 05:00 8,1 C 81 % 1010,3 hPa 0,0 l/m 3,9 km/h SW 5,0 C 8,1 C 2,2 km/h
23.02.2017 06:00 7,8 C 81 % 1009,5 hPa 0,0 l/m 0,0 km/h SW 4,7 C 7,8 C 0,0 km/h
23.02.2017 07:00 7,9 C 81 % 1008,5 hPa 0,0 l/m 9,7 km/h S 4,8 C 5,5 C 5,4 km/h
23.02.2017 08:00 8,3 C 80 % 1007,7 hPa 0,0 l/m 7,1 km/h SW 5,1 C 7,8 C 4,0 km/h
23.02.2017 09:00 11,9 C 73 % 1006,9 hPa 0,0 l/m 15,6 km/h S-SW 7,2 C 7,2 C 8,6 km/h
23.02.2017 10:00 14,8 C 61 % 1006,1 hPa 0,0 l/m 18,8 km/h S-SW 7,4 C 9,8 C 10,4 km/h
23.02.2017 11:00 13,8 C 56 % 1005,6 hPa 0,0 l/m 16,2 km/h W-SW 5,2 C 9,3 C 9,0 km/h
23.02.2017 12:00 17,8 C 48 % 1005,0 hPa 0,0 l/m 20,1 km/h S 6,6 C 13,3 C 11,2 km/h
23.02.2017 13:00 15,5 C 48 % 1003,3 hPa 0,0 l/m 34,3 km/h W 4,5 C 7,8 C 19,1 km/h
23.02.2017 14:00 16,8 C 47 % 1002,2 hPa 0,0 l/m 0,6 km/h W 5,4 C 16,8 C 0,4 km/h
23.02.2017 15:00 18,2 C 35 % 1000,6 hPa 0,0 l/m 36,9 km/h W 2,5 C 11,4 C 20,5 km/h
23.02.2017 16:00 17,1 C 37 % 1000,4 hPa 0,0 l/m 23,3 km/h W-SW 2,3 C 11,8 C 13,0 km/h
23.02.2017 17:00 16,3 C 39 % 1000,8 hPa 0,0 l/m 58,3 km/h W-SW 2,3 C 6,9 C 32,4 km/h
23.02.2017 18:00 14,8 C 44 % 1001,1 hPa 0,0 l/m 18,8 km/h W-NW 2,7 C 9,8 C 10,4 km/h
23.02.2017 19:00 13,6 C 48 % 1001,5 hPa 0,0 l/m 18,8 km/h W-SW 2,8 C 8,3 C 10,4 km/h
23.02.2017 20:00 13,4 C 51 % 1002,3 hPa 0,0 l/m 22,0 km/h W-SW 3,5 C 7,2 C 12,2 km/h
23.02.2017 21:00 12,1 C 61 % 1002,7 hPa 0,0 l/m 13,6 km/h S-SW 4,8 C 8,2 C 7,6 km/h
23.02.2017 22:00 11,3 C 70 % 1002,8 hPa 0,0 l/m 24,0 km/h W-SW 6,0 C 3,8 C 13,3 km/h
23.02.2017 23:00 10,6 C 76 % 1003,0 hPa 0,0 l/m 23,3 km/h W 6,5 C 3,1 C 13,0 km/h
24.02.2017 00:00 7,5 C 76 % 1004,2 hPa 4,1 l/m 8,4 km/h S-SW 3,5 C 5,9 C 4,7 km/h
24.02.2017 01:00 8,3 C 70 % 1005,0 hPa 0,0 l/m 16,8 km/h W 3,2 C 2,3 C 9,4 km/h
24.02.2017 02:00 7,8 C 72 % 1006,2 hPa 0,0 l/m 1,9 km/h W-NW 3,1 C 7,8 C 1,1 km/h
24.02.2017 03:00 7,3 C 76 % 1007,1 hPa 0,0 l/m 15,6 km/h W-NW 3,4 C 1,6 C 8,6 km/h
24.02.2017 04:00 6,9 C 77 % 1007,6 hPa 0,0 l/m 9,7 km/h W 3,2 C 4,4 C 5,4 km/h
24.02.2017 05:00 5,9 C 77 % 1008,5 hPa 0,0 l/m 7,8 km/h W-NW 2,2 C 4,7 C 4,3 km/h
24.02.2017 06:00 6,2 C 71 % 1008,8 hPa 0,0 l/m 15,6 km/h W 1,3 C 0,2 C 8,6 km/h
24.02.2017 07:00 5,8 C 68 % 1009,3 hPa 0,0 l/m 3,9 km/h W-NW 0,4 C 5,8 C 2,2 km/h
24.02.2017 08:00 4,9 C 78 % 1010,1 hPa 0,0 l/m 0,0 km/h W 1,4 C 4,9 C 0,0 km/h
24.02.2017 09:00 5,6 C 79 % 1010,8 hPa 0,0 l/m 0,0 km/h S-SW 2,3 C 5,6 C 0,0 km/h
24.02.2017 10:00 6,8 C 77 % 1011,3 hPa 0,0 l/m 4,5 km/h W-SW 3,1 C 6,8 C 2,5 km/h
24.02.2017 11:00 6,9 C 76 % 1011,6 hPa 0,0 l/m 0,0 km/h N-NO 3,0 C 6,9 C 0,0 km/h
24.02.2017 12:00 4,1 C 82 % 1012,2 hPa 1,0 l/m 0,0 km/h NW 1,3 C 4,1 C 0,0 km/h
24.02.2017 13:00 4,8 C 83 % 1012,7 hPa 0,0 l/m 0,0 km/h SO 2,2 C 4,8 C 0,0 km/h
24.02.2017 14:00 4,9 C 84 % 1012,4 hPa 1,0 l/m 0,0 km/h S-SO 2,4 C 4,9 C 0,0 km/h
24.02.2017 15:00 5,4 C 82 % 1012,4 hPa 0,0 l/m 4,5 km/h S-SO 2,6 C 5,4 C 2,5 km/h
24.02.2017 16:00 7,9 C 76 % 1012,8 hPa 0,0 l/m 0,0 km/h S-SO 3,9 C 7,9 C 0,0 km/h
24.02.2017 17:00 6,0 C 79 % 1013,7 hPa 0,0 l/m 0,0 km/h O-SO 2,6 C 6,0 C 0,0 km/h
24.02.2017 18:00 4,8 C 81 % 1014,7 hPa 0,0 l/m 0,0 km/h O-NO 1,8 C 4,8 C 0,0 km/h
24.02.2017 19:00 3,7 C 83 % 1016,1 hPa 0,0 l/m 0,0 km/h O-SO 1,1 C 3,7 C 0,0 km/h
24.02.2017 20:00 1,6 C 85 % 1016,7 hPa 0,0 l/m 0,0 km/h O-SO -0,6 C 1,6 C 0,0 km/h
24.02.2017 21:00 0,8 C 86 % 1017,8 hPa 0,0 l/m 0,0 km/h O-SO -1,3 C 0,8 C 0,0 km/h
24.02.2017 22:00 -0,4 C 86 % 1018,3 hPa 0,0 l/m 0,0 km/h O-SO -2,4 C -0,4 C 0,0 km/h
24.02.2017 23:00 0,6 C 86 % 1018,6 hPa 0,0 l/m 0,0 km/h O-SO -1,5 C 0,6 C 0,0 km/h
25.02.2017 00:00 0,0 C 86 % 1018,7 hPa 0,0 l/m 0,0 km/h O-SO -2,1 C 0,0 C 0,0 km/h
25.02.2017 01:00 -0,9 C 86 % 1019,7 hPa 0,0 l/m 0,0 km/h O-SO -2,9 C -0,9 C 0,0 km/h
25.02.2017 02:00 -1,1 C 86 % 1019,7 hPa 0,0 l/m 0,0 km/h O-SO -3,1 C -1,1 C 0,0 km/h
25.02.2017 03:00 -1,6 C 85 % 1019,7 hPa 0,0 l/m 0,0 km/h O-SO -3,8 C -1,6 C 0,0 km/h
25.02.2017 04:00 -2,1 C 85 % 1019,5 hPa 0,0 l/m 0,0 km/h O-SO -4,3 C -2,1 C 0,0 km/h
25.02.2017 05:00 -2,5 C 85 % 1019,7 hPa 0,0 l/m 0,0 km/h O-SO -4,7 C -2,5 C 0,0 km/h
25.02.2017 06:00 -2,8 C 85 % 1020,1 hPa 0,0 l/m 0,0 km/h O-SO -5,0 C -2,8 C 0,0 km/h
25.02.2017 07:00 -2,8 C 85 % 1020,0 hPa 0,0 l/m 0,0 km/h O-SO -5,0 C -2,8 C 0,0 km/h
25.02.2017 08:00 -2,1 C 85 % 1020,5 hPa 0,0 l/m 0,0 km/h SO -4,3 C -2,1 C 0,0 km/h
25.02.2017 09:00 1,3 C 82 % 1020,6 hPa 0,0 l/m 4,5 km/h SO -1,4 C 1,3 C 2,5 km/h
25.02.2017 10:00 9,0 C 80 % 1021,2 hPa 0,0 l/m 0,0 km/h SO 5,7 C 9,0 C 0,0 km/h
25.02.2017 11:00 11,9 C 64 % 1021,0 hPa 0,0 l/m 0,0 km/h W-NW 5,3 C 11,9 C 0,0 km/h
25.02.2017 12:00 12,6 C 59 % 1020,4 hPa 0,5 l/m 0,0 km/h N 4,8 C 12,6 C 0,0 km/h
25.02.2017 13:00 13,1 C 58 % 1019,5 hPa 0,0 l/m 0,0 km/h N 5,0 C 13,1 C 0,0 km/h
25.02.2017 14:00 12,8 C 59 % 1019,1 hPa 0,0 l/m 0,0 km/h NW 5,0 C 12,8 C 0,0 km/h
25.02.2017 15:00 14,2 C 55 % 1018,4 hPa 0,0 l/m 0,0 km/h SW 5,3 C 14,2 C 0,0 km/h
25.02.2017 16:00 15,0 C 51 % 1018,1 hPa 0,0 l/m 0,0 km/h W 4,9 C 15,0 C 0,0 km/h
25.02.2017 17:00 13,5 C 53 % 1017,7 hPa 0,0 l/m 0,0 km/h W 4,1 C 13,5 C 0,0 km/h
25.02.2017 18:00 7,3 C 65 % 1017,5 hPa 0,0 l/m 0,0 km/h O-SO 1,2 C 7,3 C 0,0 km/h
25.02.2017 19:00 4,2 C 77 % 1017,6 hPa 0,0 l/m 0,0 km/h O-SO 0,5 C 4,2 C 0,0 km/h
25.02.2017 20:00 2,9 C 81 % 1017,3 hPa 0,0 l/m 0,0 km/h O-SO -0,0 C 2,9 C 0,0 km/h
25.02.2017 21:00 2,1 C 84 % 1017,4 hPa 0,0 l/m 0,0 km/h O-SO -0,3 C 2,1 C 0,0 km/h
25.02.2017 22:00 1,9 C 85 % 1017,1 hPa 0,0 l/m 0,0 km/h O-SO -0,3 C 1,9 C 0,0 km/h
25.02.2017 23:00 1,3 C 86 % 1016,9 hPa 0,0 l/m 0,0 km/h O-SO -0,8 C 1,3 C 0,0 km/h
26.02.2017 00:00 1,7 C 85 % 1016,7 hPa 0,0 l/m 0,0 km/h O -0,5 C 1,7 C 0,0 km/h
26.02.2017 01:00 1,9 C 86 % 1016,1 hPa 0,0 l/m 0,0 km/h O-SO -0,2 C 1,9 C 0,0 km/h
26.02.2017 02:00 1,8 C 86 % 1016,1 hPa 0,0 l/m 0,0 km/h O-SO -0,3 C 1,8 C 0,0 km/h
26.02.2017 03:00 1,8 C 86 % 1015,6 hPa 0,0 l/m 0,0 km/h O-NO -0,3 C 1,8 C 0,0 km/h
26.02.2017 04:00 0,8 C 86 % 1015,6 hPa 0,0 l/m 0,0 km/h O-NO -1,3 C 0,8 C 0,0 km/h
26.02.2017 05:00 1,0 C 86 % 1015,4 hPa 0,0 l/m 0,0 km/h O-SO -1,1 C 1,0 C 0,0 km/h
26.02.2017 06:00 1,4 C 86 % 1015,1 hPa 0,0 l/m 0,0 km/h O-SO -0,7 C 1,4 C 0,0 km/h
26.02.2017 07:00 0,9 C 86 % 1015,3 hPa 0,0 l/m 0,0 km/h O-SO -1,2 C 0,9 C 0,0 km/h
26.02.2017 08:00 1,5 C 86 % 1015,7 hPa 0,0 l/m 0,0 km/h O-SO -0,6 C 1,5 C 0,0 km/h
26.02.2017 09:00 3,8 C 86 % 1016,2 hPa 0,0 l/m 3,2 km/h W-SW 1,7 C 3,8 C 1,8 km/h
26.02.2017 10:00 9,5 C 75 % 1015,5 hPa 0,0 l/m 16,2 km/h W-SW 5,3 C 4,0 C 9,0 km/h
26.02.2017 11:00 10,4 C 57 % 1015,8 hPa 0,0 l/m 22,0 km/h SW 2,3 C 3,2 C 12,2 km/h
26.02.2017 12:00 11,3 C 52 % 1015,6 hPa 0,0 l/m 22,0 km/h W-SW 1,8 C 4,4 C 12,2 km/h
26.02.2017 13:00 12,2 C 48 % 1015,1 hPa 0,0 l/m 24,0 km/h W 1,5 C 5,1 C 13,3 km/h
26.02.2017 14:00 13,2 C 49 % 1014,3 hPa 0,0 l/m 13,6 km/h W-SW 2,7 C 9,5 C 7,6 km/h
26.02.2017 15:00 14,9 C 44 % 1013,6 hPa 0,0 l/m 18,1 km/h W 2,8 C 10,1 C 10,1 km/h
26.02.2017 16:00 17,0 C 40 % 1013,3 hPa 0,0 l/m 3,9 km/h W-SW 3,3 C 17,0 C 2,2 km/h
26.02.2017 17:00 16,5 C 39 % 1012,8 hPa 0,0 l/m 4,5 km/h W-SW 2,5 C 16,5 C 2,5 km/h
26.02.2017 18:00 12,6 C 45 % 1012,9 hPa 0,0 l/m 0,0 km/h S-SW 1,0 C 12,6 C 0,0 km/h
26.02.2017 19:00 8,3 C 54 % 1013,4 hPa 0,0 l/m 0,0 km/h N-NO -0,5 C 8,3 C 0,0 km/h
26.02.2017 20:00 5,2 C 67 % 1013,6 hPa 0,0 l/m 0,0 km/h O-NO -0,4 C 5,2 C 0,0 km/h
26.02.2017 21:00 3,8 C 73 % 1013,5 hPa 0,0 l/m 0,0 km/h O-SO -0,6 C 3,8 C 0,0 km/h
26.02.2017 22:00 3,9 C 75 % 1013,0 hPa 0,0 l/m 0,0 km/h O-SO -0,1 C 3,9 C 0,0 km/h
26.02.2017 23:00 3,6 C 76 % 1012,9 hPa 0,0 l/m 0,0 km/h O-SO -0,2 C 3,6 C 0,0 km/h
Min-Datum _ 25.02.17 23.02.17 23.02.17 - 20.02.17 - 25.02.17 21.02.17 20.02.17
_ Min-Zeit 06:01 15:01 16:01 - 00:01 - 06:01 01:01 00:01
Minimum _ -2,8 C 35 % 1000,4 hPa - 0,0 km/h - -5,0 C -3,2 C 0,0 km/h
Max-Datum _ 23.02.17 24.02.17 20.02.17 24.02.17 23.02.17 - 21.02.17 26.02.17 23.02.17
_ Max-Zeit 15:01 21:01 11:01 00:01 17:01 - 17:01 16:01 17:01
Maximum _ 18,2 C 86 % 1022,5 hPa 4,1 l/m 58,3 km/h
W-SW
- 8,5 C 17,0 C 32,4 km/h
W-SW
Durchschnitt _ 8,0 C 75 % 1014,9 hPa #7,8 l/m 10,8 km/h W-SW 3,6 C 4,9 C 6,0 km/h
www.sexauwetter.de